sensor_id;sensor_type;location;lat;lon;timestamp;P1;durP1;ratioP1;P2;durP2;ratioP2
19364;SDS011;9818;48.382;10.850;2024-01-06T00:01:13;2.27;;;1.80;;
19364;SDS011;9818;48.382;10.850;2024-01-06T00:03:43;1.70;;;1.50;;
19364;SDS011;9818;48.382;10.850;2024-01-06T00:06:11;2.20;;;1.50;;
19364;SDS011;9818;48.382;10.850;2024-01-06T00:08:43;2.10;;;1.80;;
19364;SDS011;9818;48.382;10.850;2024-01-06T00:11:12;2.33;;;1.90;;
19364;SDS011;9818;48.382;10.850;2024-01-06T00:13:41;1.77;;;1.60;;
19364;SDS011;9818;48.382;10.850;2024-01-06T00:16:09;2.17;;;1.70;;
19364;SDS011;9818;48.382;10.850;2024-01-06T00:18:38;3.23;;;1.90;;
19364;SDS011;9818;48.382;10.850;2024-01-06T00:21:07;2.43;;;1.50;;
19364;SDS011;9818;48.382;10.850;2024-01-06T00:23:36;2.30;;;2.03;;
19364;SDS011;9818;48.382;10.850;2024-01-06T00:26:09;2.30;;;1.80;;
19364;SDS011;9818;48.382;10.850;2024-01-06T00:28:38;3.10;;;1.80;;
19364;SDS011;9818;48.382;10.850;2024-01-06T00:31:07;2.43;;;1.60;;
19364;SDS011;9818;48.382;10.850;2024-01-06T00:33:36;2.00;;;1.60;;
19364;SDS011;9818;48.382;10.850;2024-01-06T00:36:06;1.77;;;1.63;;
19364;SDS011;9818;48.382;10.850;2024-01-06T00:38:35;3.13;;;1.83;;
19364;SDS011;9818;48.382;10.850;2024-01-06T00:41:04;2.63;;;1.80;;
19364;SDS011;9818;48.382;10.850;2024-01-06T00:43:35;2.20;;;2.00;;
19364;SDS011;9818;48.382;10.850;2024-01-06T00:46:04;2.77;;;1.67;;
19364;SDS011;9818;48.382;10.850;2024-01-06T00:48:33;1.90;;;1.70;;
19364;SDS011;9818;48.382;10.850;2024-01-06T00:51:02;2.00;;;1.80;;
19364;SDS011;9818;48.382;10.850;2024-01-06T00:53:32;2.07;;;1.80;;
19364;SDS011;9818;48.382;10.850;2024-01-06T00:56:01;2.33;;;1.90;;
19364;SDS011;9818;48.382;10.850;2024-01-06T00:58:31;2.10;;;1.90;;
19364;SDS011;9818;48.382;10.850;2024-01-06T01:01:03;2.00;;;1.77;;
19364;SDS011;9818;48.382;10.850;2024-01-06T01:03:32;2.63;;;2.00;;
19364;SDS011;9818;48.382;10.850;2024-01-06T01:06:01;3.57;;;2.17;;
19364;SDS011;9818;48.382;10.850;2024-01-06T01:08:30;2.73;;;2.00;;
19364;SDS011;9818;48.382;10.850;2024-01-06T01:10:59;2.33;;;2.03;;
19364;SDS011;9818;48.382;10.850;2024-01-06T01:13:28;2.90;;;2.00;;
19364;SDS011;9818;48.382;10.850;2024-01-06T01:15:57;1.90;;;1.70;;
19364;SDS011;9818;48.382;10.850;2024-01-06T01:18:29;3.83;;;2.13;;
19364;SDS011;9818;48.382;10.850;2024-01-06T01:20:58;1.83;;;1.70;;
19364;SDS011;9818;48.382;10.850;2024-01-06T01:23:28;2.70;;;2.00;;
19364;SDS011;9818;48.382;10.850;2024-01-06T01:25:57;2.20;;;1.80;;
19364;SDS011;9818;48.382;10.850;2024-01-06T01:28:26;1.93;;;1.73;;
19364;SDS011;9818;48.382;10.850;2024-01-06T01:30:55;4.13;;;1.70;;
19364;SDS011;9818;48.382;10.850;2024-01-06T01:33:25;2.47;;;1.80;;
19364;SDS011;9818;48.382;10.850;2024-01-06T01:35:56;1.60;;;1.50;;
19364;SDS011;9818;48.382;10.850;2024-01-06T01:38:26;1.77;;;1.63;;
19364;SDS011;9818;48.382;10.850;2024-01-06T01:40:55;2.23;;;2.03;;
19364;SDS011;9818;48.382;10.850;2024-01-06T01:43:24;1.90;;;1.80;;
19364;SDS011;9818;48.382;10.850;2024-01-06T01:45:54;1.67;;;1.57;;
19364;SDS011;9818;48.382;10.850;2024-01-06T01:48:24;1.80;;;1.67;;
19364;SDS011;9818;48.382;10.850;2024-01-06T01:50:56;1.87;;;1.77;;
19364;SDS011;9818;48.382;10.850;2024-01-06T01:53:25;1.90;;;1.70;;
19364;SDS011;9818;48.382;10.850;2024-01-06T01:55:55;2.37;;;1.70;;
19364;SDS011;9818;48.382;10.850;2024-01-06T01:58:25;3.57;;;1.83;;
19364;SDS011;9818;48.382;10.850;2024-01-06T02:00:54;2.03;;;1.83;;
19364;SDS011;9818;48.382;10.850;2024-01-06T02:03:23;2.03;;;1.70;;
19364;SDS011;9818;48.382;10.850;2024-01-06T02:05:53;1.97;;;1.77;;
19364;SDS011;9818;48.382;10.850;2024-01-06T02:08:24;2.23;;;2.03;;
19364;SDS011;9818;48.382;10.850;2024-01-06T02:10:54;1.73;;;1.60;;
19364;SDS011;9818;48.382;10.850;2024-01-06T02:13:24;3.57;;;1.80;;
19364;SDS011;9818;48.382;10.850;2024-01-06T02:16:00;2.10;;;1.70;;
19364;SDS011;9818;48.382;10.850;2024-01-06T02:18:30;3.07;;;1.83;;
19364;SDS011;9818;48.382;10.850;2024-01-06T02:21:02;2.10;;;1.90;;
19364;SDS011;9818;48.382;10.850;2024-01-06T02:23:34;2.30;;;1.70;;
19364;SDS011;9818;48.382;10.850;2024-01-06T02:26:03;2.10;;;1.63;;
19364;SDS011;9818;48.382;10.850;2024-01-06T02:28:32;1.80;;;1.70;;
19364;SDS011;9818;48.382;10.850;2024-01-06T02:31:01;2.50;;;2.13;;
19364;SDS011;9818;48.382;10.850;2024-01-06T02:33:30;2.07;;;1.87;;
19364;SDS011;9818;48.382;10.850;2024-01-06T02:35:59;1.87;;;1.70;;
19364;SDS011;9818;48.382;10.850;2024-01-06T02:38:28;1.93;;;1.73;;
19364;SDS011;9818;48.382;10.850;2024-01-06T02:40:59;1.93;;;1.70;;
19364;SDS011;9818;48.382;10.850;2024-01-06T02:43:28;2.40;;;1.53;;
19364;SDS011;9818;48.382;10.850;2024-01-06T02:45:57;1.80;;;1.70;;
19364;SDS011;9818;48.382;10.850;2024-01-06T02:48:25;2.50;;;1.93;;
19364;SDS011;9818;48.382;10.850;2024-01-06T02:50:55;2.10;;;1.90;;
19364;SDS011;9818;48.382;10.850;2024-01-06T02:53:24;1.80;;;1.60;;
19364;SDS011;9818;48.382;10.850;2024-01-06T02:55:53;1.77;;;1.67;;
19364;SDS011;9818;48.382;10.850;2024-01-06T02:58:25;2.63;;;1.70;;
19364;SDS011;9818;48.382;10.850;2024-01-06T03:00:53;1.63;;;1.50;;
19364;SDS011;9818;48.382;10.850;2024-01-06T03:03:22;4.13;;;2.00;;
19364;SDS011;9818;48.382;10.850;2024-01-06T03:05:51;1.70;;;1.53;;
19364;SDS011;9818;48.382;10.850;2024-01-06T03:08:20;2.03;;;1.87;;
19364;SDS011;9818;48.382;10.850;2024-01-06T03:10:48;1.87;;;1.67;;
19364;SDS011;9818;48.382;10.850;2024-01-06T03:13:17;1.87;;;1.70;;
19364;SDS011;9818;48.382;10.850;2024-01-06T03:15:49;1.60;;;1.50;;
19364;SDS011;9818;48.382;10.850;2024-01-06T03:18:17;1.63;;;1.53;;
19364;SDS011;9818;48.382;10.850;2024-01-06T03:20:46;1.77;;;1.67;;
19364;SDS011;9818;48.382;10.850;2024-01-06T03:23:15;1.90;;;1.70;;
19364;SDS011;9818;48.382;10.850;2024-01-06T03:25:44;2.10;;;1.90;;
19364;SDS011;9818;48.382;10.850;2024-01-06T03:28:13;1.97;;;1.57;;
19364;SDS011;9818;48.382;10.850;2024-01-06T03:30:41;1.90;;;1.70;;
19364;SDS011;9818;48.382;10.850;2024-01-06T03:33:13;1.83;;;1.60;;
19364;SDS011;9818;48.382;10.850;2024-01-06T03:35:42;1.63;;;1.53;;
19364;SDS011;9818;48.382;10.850;2024-01-06T03:38:10;1.70;;;1.60;;
19364;SDS011;9818;48.382;10.850;2024-01-06T03:40:39;1.70;;;1.60;;
19364;SDS011;9818;48.382;10.850;2024-01-06T03:43:08;2.00;;;1.70;;
19364;SDS011;9818;48.382;10.850;2024-01-06T03:45:37;1.73;;;1.50;;
19364;SDS011;9818;48.382;10.850;2024-01-06T03:48:06;2.03;;;1.43;;
19364;SDS011;9818;48.382;10.850;2024-01-06T03:50:38;1.83;;;1.60;;
19364;SDS011;9818;48.382;10.850;2024-01-06T03:53:07;2.03;;;1.63;;
19364;SDS011;9818;48.382;10.850;2024-01-06T03:55:35;2.37;;;1.70;;
19364;SDS011;9818;48.382;10.850;2024-01-06T03:58:04;2.30;;;1.63;;
19364;SDS011;9818;48.382;10.850;2024-01-06T04:00:33;1.97;;;1.73;;
19364;SDS011;9818;48.382;10.850;2024-01-06T04:03:02;2.30;;;1.83;;
19364;SDS011;9818;48.382;10.850;2024-01-06T04:05:32;1.90;;;1.67;;
19364;SDS011;9818;48.382;10.850;2024-01-06T04:08:03;1.53;;;1.43;;
19364;SDS011;9818;48.382;10.850;2024-01-06T04:10:33;1.60;;;1.50;;
19364;SDS011;9818;48.382;10.850;2024-01-06T04:13:02;2.10;;;1.90;;
19364;SDS011;9818;48.382;10.850;2024-01-06T04:15:31;1.70;;;1.50;;
19364;SDS011;9818;48.382;10.850;2024-01-06T04:18:01;1.70;;;1.60;;
19364;SDS011;9818;48.382;10.850;2024-01-06T04:20:31;2.63;;;1.47;;
19364;SDS011;9818;48.382;10.850;2024-01-06T04:23:04;1.53;;;1.43;;
19364;SDS011;9818;48.382;10.850;2024-01-06T04:25:33;1.53;;;1.43;;
19364;SDS011;9818;48.382;10.850;2024-01-06T04:28:02;1.60;;;1.50;;
19364;SDS011;9818;48.382;10.850;2024-01-06T04:30:31;1.50;;;1.40;;
19364;SDS011;9818;48.382;10.850;2024-01-06T04:33:00;1.67;;;1.57;;
19364;SDS011;9818;48.382;10.850;2024-01-06T04:35:28;1.40;;;1.30;;
19364;SDS011;9818;48.382;10.850;2024-01-06T04:37:57;1.60;;;1.50;;
19364;SDS011;9818;48.382;10.850;2024-01-06T04:40:29;1.43;;;1.33;;
19364;SDS011;9818;48.382;10.850;2024-01-06T04:42:57;1.50;;;1.33;;
19364;SDS011;9818;48.382;10.850;2024-01-06T04:45:26;1.70;;;1.60;;
19364;SDS011;9818;48.382;10.850;2024-01-06T04:47:55;1.87;;;1.67;;
19364;SDS011;9818;48.382;10.850;2024-01-06T04:50:24;1.67;;;1.57;;
19364;SDS011;9818;48.382;10.850;2024-01-06T04:52:52;1.70;;;1.60;;
19364;SDS011;9818;48.382;10.850;2024-01-06T04:55:21;1.97;;;1.57;;
19364;SDS011;9818;48.382;10.850;2024-01-06T04:57:53;1.67;;;1.50;;
19364;SDS011;9818;48.382;10.850;2024-01-06T05:00:21;2.03;;;1.40;;
19364;SDS011;9818;48.382;10.850;2024-01-06T05:02:51;1.60;;;1.50;;
19364;SDS011;9818;48.382;10.850;2024-01-06T05:05:19;1.87;;;1.60;;
19364;SDS011;9818;48.382;10.850;2024-01-06T05:07:48;1.83;;;1.37;;
19364;SDS011;9818;48.382;10.850;2024-01-06T05:10:17;1.53;;;1.43;;
19364;SDS011;9818;48.382;10.850;2024-01-06T05:12:46;1.50;;;1.40;;
19364;SDS011;9818;48.382;10.850;2024-01-06T05:15:17;1.40;;;1.30;;
19364;SDS011;9818;48.382;10.850;2024-01-06T05:17:46;1.77;;;1.60;;
19364;SDS011;9818;48.382;10.850;2024-01-06T05:20:15;1.37;;;1.27;;
19364;SDS011;9818;48.382;10.850;2024-01-06T05:22:44;1.50;;;1.40;;
19364;SDS011;9818;48.382;10.850;2024-01-06T05:25:12;2.00;;;1.60;;
19364;SDS011;9818;48.382;10.850;2024-01-06T05:27:41;2.13;;;1.40;;
19364;SDS011;9818;48.382;10.850;2024-01-06T05:30:10;1.60;;;1.50;;
19364;SDS011;9818;48.382;10.850;2024-01-06T05:32:42;1.50;;;1.40;;
19364;SDS011;9818;48.382;10.850;2024-01-06T05:35:11;1.67;;;1.40;;
19364;SDS011;9818;48.382;10.850;2024-01-06T05:37:40;1.63;;;1.53;;
19364;SDS011;9818;48.382;10.850;2024-01-06T05:40:09;1.40;;;1.30;;
19364;SDS011;9818;48.382;10.850;2024-01-06T05:42:38;1.70;;;1.60;;
19364;SDS011;9818;48.382;10.850;2024-01-06T05:45:10;1.60;;;1.50;;
19364;SDS011;9818;48.382;10.850;2024-01-06T05:47:42;1.47;;;1.37;;
19364;SDS011;9818;48.382;10.850;2024-01-06T05:50:11;1.40;;;1.30;;
19364;SDS011;9818;48.382;10.850;2024-01-06T05:52:43;1.40;;;1.30;;
19364;SDS011;9818;48.382;10.850;2024-01-06T05:55:12;1.40;;;1.30;;
19364;SDS011;9818;48.382;10.850;2024-01-06T05:57:41;1.80;;;1.50;;
19364;SDS011;9818;48.382;10.850;2024-01-06T06:00:10;2.23;;;1.30;;
19364;SDS011;9818;48.382;10.850;2024-01-06T06:02:42;1.50;;;1.33;;
19364;SDS011;9818;48.382;10.850;2024-01-06T06:05:11;1.30;;;1.20;;
19364;SDS011;9818;48.382;10.850;2024-01-06T06:07:38;1.57;;;1.43;;
19364;SDS011;9818;48.382;10.850;2024-01-06T06:10:08;1.20;;;1.10;;
19364;SDS011;9818;48.382;10.850;2024-01-06T06:12:38;1.57;;;1.30;;
19364;SDS011;9818;48.382;10.850;2024-01-06T06:15:07;1.57;;;1.40;;
19364;SDS011;9818;48.382;10.850;2024-01-06T06:17:36;1.43;;;1.33;;
19364;SDS011;9818;48.382;10.850;2024-01-06T06:20:08;1.67;;;1.47;;
19364;SDS011;9818;48.382;10.850;2024-01-06T06:22:37;1.60;;;1.50;;
19364;SDS011;9818;48.382;10.850;2024-01-06T06:25:07;1.67;;;1.33;;
19364;SDS011;9818;48.382;10.850;2024-01-06T06:27:36;1.43;;;1.33;;
19364;SDS011;9818;48.382;10.850;2024-01-06T06:30:05;1.33;;;1.23;;
19364;SDS011;9818;48.382;10.850;2024-01-06T06:32:35;1.40;;;1.30;;
19364;SDS011;9818;48.382;10.850;2024-01-06T06:35:05;1.23;;;1.13;;
19364;SDS011;9818;48.382;10.850;2024-01-06T06:37:37;1.87;;;1.53;;
19364;SDS011;9818;48.382;10.850;2024-01-06T06:40:06;1.50;;;1.40;;
19364;SDS011;9818;48.382;10.850;2024-01-06T06:42:36;1.60;;;1.30;;
19364;SDS011;9818;48.382;10.850;2024-01-06T06:45:05;1.20;;;1.10;;
19364;SDS011;9818;48.382;10.850;2024-01-06T06:47:36;1.77;;;1.40;;
19364;SDS011;9818;48.382;10.850;2024-01-06T06:50:05;1.57;;;1.20;;
19364;SDS011;9818;48.382;10.850;2024-01-06T06:52:37;1.37;;;1.27;;
19364;SDS011;9818;48.382;10.850;2024-01-06T06:55:07;1.40;;;1.30;;
19364;SDS011;9818;48.382;10.850;2024-01-06T06:57:36;1.37;;;1.27;;
19364;SDS011;9818;48.382;10.850;2024-01-06T07:00:06;1.30;;;1.20;;
19364;SDS011;9818;48.382;10.850;2024-01-06T07:02:35;1.30;;;1.20;;
19364;SDS011;9818;48.382;10.850;2024-01-06T07:05:05;1.40;;;1.30;;
19364;SDS011;9818;48.382;10.850;2024-01-06T07:07:37;1.30;;;1.20;;
19364;SDS011;9818;48.382;10.850;2024-01-06T07:10:07;1.40;;;1.20;;
19364;SDS011;9818;48.382;10.850;2024-01-06T07:12:36;1.27;;;1.17;;
19364;SDS011;9818;48.382;10.850;2024-01-06T07:15:05;2.70;;;1.40;;
19364;SDS011;9818;48.382;10.850;2024-01-06T07:17:36;1.20;;;1.10;;
19364;SDS011;9818;48.382;10.850;2024-01-06T07:20:05;1.20;;;1.10;;
19364;SDS011;9818;48.382;10.850;2024-01-06T07:22:38;1.10;;;1.00;;
19364;SDS011;9818;48.382;10.850;2024-01-06T07:25:07;1.50;;;1.40;;
19364;SDS011;9818;48.382;10.850;2024-01-06T07:27:36;1.23;;;1.13;;
19364;SDS011;9818;48.382;10.850;2024-01-06T07:30:05;1.00;;;1.00;;
19364;SDS011;9818;48.382;10.850;2024-01-06T07:32:35;1.67;;;1.30;;
19364;SDS011;9818;48.382;10.850;2024-01-06T07:35:04;2.00;;;1.20;;
19364;SDS011;9818;48.382;10.850;2024-01-06T07:37:33;1.30;;;1.20;;
19364;SDS011;9818;48.382;10.850;2024-01-06T07:40:05;1.30;;;1.20;;
19364;SDS011;9818;48.382;10.850;2024-01-06T07:42:34;1.20;;;1.10;;
19364;SDS011;9818;48.382;10.850;2024-01-06T07:45:04;1.30;;;1.20;;
19364;SDS011;9818;48.382;10.850;2024-01-06T07:47:33;1.20;;;1.10;;
19364;SDS011;9818;48.382;10.850;2024-01-06T07:50:03;1.20;;;1.07;;
19364;SDS011;9818;48.382;10.850;2024-01-06T07:52:33;1.27;;;1.17;;
19364;SDS011;9818;48.382;10.850;2024-01-06T07:55:05;1.13;;;1.03;;
19364;SDS011;9818;48.382;10.850;2024-01-06T07:57:34;1.10;;;1.00;;
19364;SDS011;9818;48.382;10.850;2024-01-06T08:00:04;1.03;;;0.93;;
19364;SDS011;9818;48.382;10.850;2024-01-06T08:02:33;1.10;;;1.00;;
19364;SDS011;9818;48.382;10.850;2024-01-06T08:05:02;1.00;;;1.00;;
19364;SDS011;9818;48.382;10.850;2024-01-06T08:07:32;1.30;;;1.20;;
19364;SDS011;9818;48.382;10.850;2024-01-06T08:10:01;1.20;;;1.10;;
19364;SDS011;9818;48.382;10.850;2024-01-06T08:12:33;1.00;;;1.00;;
19364;SDS011;9818;48.382;10.850;2024-01-06T08:15:02;1.17;;;1.07;;
19364;SDS011;9818;48.382;10.850;2024-01-06T08:17:33;1.03;;;1.00;;
19364;SDS011;9818;48.382;10.850;2024-01-06T08:20:02;0.80;;;0.80;;
19364;SDS011;9818;48.382;10.850;2024-01-06T08:22:32;1.20;;;1.10;;
19364;SDS011;9818;48.382;10.850;2024-01-06T08:25:01;1.00;;;0.90;;
19364;SDS011;9818;48.382;10.850;2024-01-06T08:27:34;1.20;;;0.90;;
19364;SDS011;9818;48.382;10.850;2024-01-06T08:30:03;1.10;;;1.00;;
19364;SDS011;9818;48.382;10.850;2024-01-06T08:32:32;1.00;;;1.00;;
19364;SDS011;9818;48.382;10.850;2024-01-06T08:35:01;0.90;;;0.90;;
19364;SDS011;9818;48.382;10.850;2024-01-06T08:37:30;1.03;;;0.93;;
19364;SDS011;9818;48.382;10.850;2024-01-06T08:39:59;1.20;;;1.10;;
19364;SDS011;9818;48.382;10.850;2024-01-06T08:42:29;1.07;;;1.00;;
19364;SDS011;9818;48.382;10.850;2024-01-06T08:45:01;1.07;;;1.00;;
19364;SDS011;9818;48.382;10.850;2024-01-06T08:47:30;1.70;;;1.10;;
19364;SDS011;9818;48.382;10.850;2024-01-06T08:49:59;1.10;;;0.93;;
19364;SDS011;9818;48.382;10.850;2024-01-06T08:52:28;2.40;;;1.33;;
19364;SDS011;9818;48.382;10.850;2024-01-06T08:54:56;1.80;;;1.00;;
19364;SDS011;9818;48.382;10.850;2024-01-06T08:57:25;1.40;;;1.30;;
19364;SDS011;9818;48.382;10.850;2024-01-06T08:59:54;2.23;;;1.10;;
19364;SDS011;9818;48.382;10.850;2024-01-06T09:02:26;0.90;;;0.90;;
19364;SDS011;9818;48.382;10.850;2024-01-06T09:04:55;1.00;;;0.90;;
19364;SDS011;9818;48.382;10.850;2024-01-06T09:07:24;2.03;;;1.27;;
19364;SDS011;9818;48.382;10.850;2024-01-06T09:09:52;2.20;;;1.13;;
19364;SDS011;9818;48.382;10.850;2024-01-06T09:12:21;1.57;;;1.17;;
19364;SDS011;9818;48.382;10.850;2024-01-06T09:14:50;1.33;;;1.20;;
19364;SDS011;9818;48.382;10.850;2024-01-06T09:17:19;0.90;;;0.90;;
19364;SDS011;9818;48.382;10.850;2024-01-06T09:19:50;1.20;;;1.10;;
19364;SDS011;9818;48.382;10.850;2024-01-06T09:22:19;2.47;;;1.10;;
19364;SDS011;9818;48.382;10.850;2024-01-06T09:24:49;2.00;;;0.90;;
19364;SDS011;9818;48.382;10.850;2024-01-06T09:27:17;1.20;;;1.10;;
19364;SDS011;9818;48.382;10.850;2024-01-06T09:29:47;1.00;;;0.90;;
19364;SDS011;9818;48.382;10.850;2024-01-06T09:32:16;1.10;;;1.00;;
19364;SDS011;9818;48.382;10.850;2024-01-06T09:34:45;1.10;;;0.87;;
19364;SDS011;9818;48.382;10.850;2024-01-06T09:37:16;1.60;;;1.00;;
19364;SDS011;9818;48.382;10.850;2024-01-06T09:39:45;1.10;;;1.00;;
19364;SDS011;9818;48.382;10.850;2024-01-06T09:42:14;0.90;;;0.90;;
19364;SDS011;9818;48.382;10.850;2024-01-06T09:44:43;1.27;;;1.00;;
19364;SDS011;9818;48.382;10.850;2024-01-06T09:47:12;0.90;;;0.90;;
19364;SDS011;9818;48.382;10.850;2024-01-06T09:49:43;1.00;;;0.90;;
19364;SDS011;9818;48.382;10.850;2024-01-06T09:52:21;1.53;;;1.10;;
19364;SDS011;9818;48.382;10.850;2024-01-06T09:54:51;1.00;;;0.90;;
19364;SDS011;9818;48.382;10.850;2024-01-06T09:57:21;1.50;;;1.10;;
19364;SDS011;9818;48.382;10.850;2024-01-06T09:59:51;1.10;;;0.97;;
19364;SDS011;9818;48.382;10.850;2024-01-06T10:02:20;1.73;;;1.00;;
19364;SDS011;9818;48.382;10.850;2024-01-06T10:04:50;1.70;;;1.10;;
19364;SDS011;9818;48.382;10.850;2024-01-06T10:07:21;1.83;;;1.00;;
19364;SDS011;9818;48.382;10.850;2024-01-06T10:09:50;1.83;;;0.93;;
19364;SDS011;9818;48.382;10.850;2024-01-06T10:12:23;1.37;;;1.00;;
19364;SDS011;9818;48.382;10.850;2024-01-06T10:14:54;1.13;;;0.80;;
19364;SDS011;9818;48.382;10.850;2024-01-06T10:17:22;1.03;;;0.93;;
19364;SDS011;9818;48.382;10.850;2024-01-06T10:19:51;1.80;;;1.10;;
19364;SDS011;9818;48.382;10.850;2024-01-06T10:22:24;1.40;;;1.10;;
19364;SDS011;9818;48.382;10.850;2024-01-06T10:24:54;1.87;;;1.03;;
19364;SDS011;9818;48.382;10.850;2024-01-06T10:27:23;3.50;;;1.10;;
19364;SDS011;9818;48.382;10.850;2024-01-06T10:29:51;2.97;;;1.00;;
19364;SDS011;9818;48.382;10.850;2024-01-06T10:32:20;1.37;;;1.10;;
19364;SDS011;9818;48.382;10.850;2024-01-06T10:34:54;2.13;;;0.97;;
19364;SDS011;9818;48.382;10.850;2024-01-06T10:37:26;1.77;;;1.10;;
19364;SDS011;9818;48.382;10.850;2024-01-06T10:40:08;1.27;;;0.83;;
19364;SDS011;9818;48.382;10.850;2024-01-06T10:42:37;1.37;;;0.90;;
19364;SDS011;9818;48.382;10.850;2024-01-06T10:45:07;1.27;;;0.93;;
19364;SDS011;9818;48.382;10.850;2024-01-06T10:47:38;2.50;;;1.00;;
19364;SDS011;9818;48.382;10.850;2024-01-06T10:50:09;2.53;;;1.10;;
19364;SDS011;9818;48.382;10.850;2024-01-06T10:52:42;2.43;;;1.00;;
19364;SDS011;9818;48.382;10.850;2024-01-06T10:55:11;1.17;;;1.00;;
19364;SDS011;9818;48.382;10.850;2024-01-06T10:57:44;1.10;;;1.00;;
19364;SDS011;9818;48.382;10.850;2024-01-06T11:00:14;0.93;;;0.90;;
19364;SDS011;9818;48.382;10.850;2024-01-06T11:02:43;1.23;;;0.90;;
19364;SDS011;9818;48.382;10.850;2024-01-06T11:05:12;1.77;;;1.03;;
19364;SDS011;9818;48.382;10.850;2024-01-06T11:07:45;1.10;;;1.00;;
19364;SDS011;9818;48.382;10.850;2024-01-06T11:10:17;0.90;;;0.80;;
19364;SDS011;9818;48.382;10.850;2024-01-06T11:15:40;1.80;;;1.10;;
19364;SDS011;9818;48.382;10.850;2024-01-06T11:26:53;2.00;;;1.10;;
19364;SDS011;9818;48.382;10.850;2024-01-06T11:29:24;2.70;;;1.20;;
19364;SDS011;9818;48.382;10.850;2024-01-06T11:34:48;1.67;;;1.00;;
19364;SDS011;9818;48.382;10.850;2024-01-06T11:37:24;1.20;;;0.90;;
19364;SDS011;9818;48.382;10.850;2024-01-06T11:40:02;1.40;;;1.10;;
19364;SDS011;9818;48.382;10.850;2024-01-06T11:42:34;1.80;;;0.90;;
19364;SDS011;9818;48.382;10.850;2024-01-06T11:45:03;1.53;;;1.00;;
19364;SDS011;9818;48.382;10.850;2024-01-06T11:47:33;1.90;;;1.20;;
19364;SDS011;9818;48.382;10.850;2024-01-06T11:50:03;2.40;;;1.17;;
19364;SDS011;9818;48.382;10.850;2024-01-06T11:52:33;2.57;;;1.10;;
19364;SDS011;9818;48.382;10.850;2024-01-06T11:55:02;1.10;;;0.90;;
19364;SDS011;9818;48.382;10.850;2024-01-06T11:57:36;1.70;;;1.03;;
19364;SDS011;9818;48.382;10.850;2024-01-06T12:00:05;2.27;;;1.00;;
19364;SDS011;9818;48.382;10.850;2024-01-06T12:02:35;0.97;;;0.93;;
19364;SDS011;9818;48.382;10.850;2024-01-06T12:05:04;1.80;;;1.10;;
19364;SDS011;9818;48.382;10.850;2024-01-06T12:07:33;1.70;;;1.00;;
19364;SDS011;9818;48.382;10.850;2024-01-06T12:10:02;1.60;;;0.90;;
19364;SDS011;9818;48.382;10.850;2024-01-06T12:12:33;2.00;;;1.13;;
19364;SDS011;9818;48.382;10.850;2024-01-06T12:15:05;2.63;;;1.23;;
19364;SDS011;9818;48.382;10.850;2024-01-06T12:17:35;3.27;;;1.30;;
19364;SDS011;9818;48.382;10.850;2024-01-06T12:20:07;8.80;;;1.87;;
19364;SDS011;9818;48.382;10.850;2024-01-06T12:22:37;2.67;;;1.20;;
19364;SDS011;9818;48.382;10.850;2024-01-06T12:25:07;4.00;;;1.20;;
19364;SDS011;9818;48.382;10.850;2024-01-06T12:27:44;5.57;;;2.20;;
19364;SDS011;9818;48.382;10.850;2024-01-06T12:30:13;12.37;;;5.20;;
19364;SDS011;9818;48.382;10.850;2024-01-06T12:32:46;6.57;;;3.90;;
19364;SDS011;9818;48.382;10.850;2024-01-06T12:35:17;8.40;;;3.83;;
19364;SDS011;9818;48.382;10.850;2024-01-06T12:37:46;6.97;;;3.60;;
19364;SDS011;9818;48.382;10.850;2024-01-06T12:40:15;8.07;;;3.97;;
19364;SDS011;9818;48.382;10.850;2024-01-06T12:42:47;7.43;;;3.80;;
19364;SDS011;9818;48.382;10.850;2024-01-06T12:45:16;5.80;;;3.47;;
19364;SDS011;9818;48.382;10.850;2024-01-06T12:47:45;6.63;;;3.23;;
19364;SDS011;9818;48.382;10.850;2024-01-06T12:50:14;6.63;;;3.23;;
19364;SDS011;9818;48.382;10.850;2024-01-06T12:52:43;5.83;;;3.10;;
19364;SDS011;9818;48.382;10.850;2024-01-06T12:55:13;13.37;;;4.30;;
19364;SDS011;9818;48.382;10.850;2024-01-06T12:57:42;7.57;;;3.70;;
19364;SDS011;9818;48.382;10.850;2024-01-06T13:00:14;8.37;;;3.33;;
19364;SDS011;9818;48.382;10.850;2024-01-06T13:02:43;6.90;;;3.40;;
19364;SDS011;9818;48.382;10.850;2024-01-06T13:05:12;6.27;;;3.40;;
19364;SDS011;9818;48.382;10.850;2024-01-06T13:07:41;8.27;;;3.20;;
19364;SDS011;9818;48.382;10.850;2024-01-06T13:10:10;7.20;;;3.67;;
19364;SDS011;9818;48.382;10.850;2024-01-06T13:12:39;7.37;;;2.70;;
19364;SDS011;9818;48.382;10.850;2024-01-06T13:15:08;5.73;;;3.03;;
19364;SDS011;9818;48.382;10.850;2024-01-06T13:17:40;5.63;;;3.17;;
19364;SDS011;9818;48.382;10.850;2024-01-06T13:20:09;5.27;;;3.23;;
19364;SDS011;9818;48.382;10.850;2024-01-06T13:22:38;8.07;;;4.37;;
19364;SDS011;9818;48.382;10.850;2024-01-06T13:25:08;8.00;;;5.80;;
19364;SDS011;9818;48.382;10.850;2024-01-06T13:27:37;11.20;;;7.30;;
19364;SDS011;9818;48.382;10.850;2024-01-06T13:30:06;9.53;;;7.43;;
19364;SDS011;9818;48.382;10.850;2024-01-06T13:32:40;8.63;;;7.37;;
19364;SDS011;9818;48.382;10.850;2024-01-06T13:35:09;11.40;;;10.50;;
19364;SDS011;9818;48.382;10.850;2024-01-06T13:37:38;15.27;;;13.77;;
19364;SDS011;9818;48.382;10.850;2024-01-06T13:40:08;14.77;;;13.67;;
19364;SDS011;9818;48.382;10.850;2024-01-06T13:42:38;15.90;;;14.70;;
19364;SDS011;9818;48.382;10.850;2024-01-06T13:45:07;16.40;;;15.27;;
19364;SDS011;9818;48.382;10.850;2024-01-06T13:47:36;18.57;;;17.17;;
19364;SDS011;9818;48.382;10.850;2024-01-06T13:50:09;19.20;;;17.70;;
19364;SDS011;9818;48.382;10.850;2024-01-06T13:52:39;19.67;;;18.20;;
19364;SDS011;9818;48.382;10.850;2024-01-06T13:55:08;20.37;;;18.80;;
19364;SDS011;9818;48.382;10.850;2024-01-06T13:57:38;22.53;;;20.87;;
19364;SDS011;9818;48.382;10.850;2024-01-06T14:00:08;21.93;;;20.33;;
19364;SDS011;9818;48.382;10.850;2024-01-06T14:02:40;22.50;;;21.10;;
19364;SDS011;9818;48.382;10.850;2024-01-06T14:05:12;24.90;;;23.20;;
19364;SDS011;9818;48.382;10.850;2024-01-06T14:07:41;26.07;;;24.37;;
19364;SDS011;9818;48.382;10.850;2024-01-06T14:10:13;27.07;;;25.27;;
19364;SDS011;9818;48.382;10.850;2024-01-06T14:12:42;28.93;;;27.03;;
19364;SDS011;9818;48.382;10.850;2024-01-06T14:15:11;30.17;;;28.27;;
19364;SDS011;9818;48.382;10.850;2024-01-06T14:17:40;31.90;;;29.70;;
19364;SDS011;9818;48.382;10.850;2024-01-06T14:20:17;34.07;;;31.90;;
19364;SDS011;9818;48.382;10.850;2024-01-06T14:22:46;34.03;;;31.93;;
19364;SDS011;9818;48.382;10.850;2024-01-06T14:25:16;34.30;;;32.30;;
19364;SDS011;9818;48.382;10.850;2024-01-06T14:27:45;34.87;;;32.40;;
19364;SDS011;9818;48.382;10.850;2024-01-06T14:30:15;35.00;;;32.63;;
19364;SDS011;9818;48.382;10.850;2024-01-06T14:32:45;36.20;;;33.83;;
19364;SDS011;9818;48.382;10.850;2024-01-06T14:35:14;38.70;;;36.20;;
19364;SDS011;9818;48.382;10.850;2024-01-06T14:37:45;37.67;;;35.43;;
19364;SDS011;9818;48.382;10.850;2024-01-06T14:40:14;38.77;;;36.27;;
19364;SDS011;9818;48.382;10.850;2024-01-06T14:42:43;36.20;;;34.10;;
19364;SDS011;9818;48.382;10.850;2024-01-06T14:45:12;36.10;;;33.83;;
19364;SDS011;9818;48.382;10.850;2024-01-06T14:47:43;35.73;;;33.43;;
19364;SDS011;9818;48.382;10.850;2024-01-06T14:50:12;34.73;;;32.63;;
19364;SDS011;9818;48.382;10.850;2024-01-06T14:52:43;34.20;;;32.20;;
19364;SDS011;9818;48.382;10.850;2024-01-06T14:55:12;33.53;;;31.53;;
19364;SDS011;9818;48.382;10.850;2024-01-06T14:57:41;33.37;;;31.30;;
19364;SDS011;9818;48.382;10.850;2024-01-06T15:00:10;34.13;;;32.03;;
19364;SDS011;9818;48.382;10.850;2024-01-06T15:02:40;33.43;;;31.27;;
19364;SDS011;9818;48.382;10.850;2024-01-06T15:05:11;34.10;;;31.90;;
19364;SDS011;9818;48.382;10.850;2024-01-06T15:07:43;32.37;;;30.43;;
19364;SDS011;9818;48.382;10.850;2024-01-06T15:10:12;32.47;;;30.57;;
19364;SDS011;9818;48.382;10.850;2024-01-06T15:12:41;32.27;;;30.33;;
19364;SDS011;9818;48.382;10.850;2024-01-06T15:15:10;31.13;;;29.27;;